Eems Trader — V2DE3 — position and weather

sailwx.info

Track history (hours):
 
Tides and Currents Weather Stations Pressure Air Temp Water Temp Dewpoint Dewpoint Depression Visibility Wind Speed Wind Dir Waves Ship Positions

Eems Trader

Last reported at 2015-Aug-04 23:29 UTC. Time now 2015-Aug-05 02:20 UTC.
Position N 37°23' E 012°28'.

Length 89 m; draft 3 m.

Type: Cargo ship. MMSI: 305182000.

Date/timePositionNaut miles runAvg speedWind from/ knotsBaromVisibWave heightAir tempDewpointWater temp
2015-Aug-04 23:29N 37°23' E 012°28'17 8.7
2015-Aug-04 21:33N 37°35' E 012°13'10 7.8
2015-Aug-04 20:16N 37°44' E 012°10'7 8.1
2015-Aug-04 19:27N 37°48' E 012°04'26 9.0
2015-Aug-04 16:33N 38°12' E 011°48'179 8.9
2015-Aug-03 20:33N 40°49' E 009°59'12 8.3
2015-Aug-03 19:03N 40°59' E 009°49'7 8.4
2015-Aug-03 18:14N 40°57' E 009°40'  
2015-Jul-31 01:18N 40°56' E 009°32'0 0.0
2015-Jul-31 00:21N 40°56' E 009°32'0 0.0
2015-Jul-30 23:24N 40°56' E 009°32'0 0.0
2015-Jul-30 22:21N 40°56' E 009°32'0 0.0
2015-Jul-30 21:27N 40°56' E 009°32'0 0.0
2015-Jul-30 20:27N 40°56' E 009°32'0 0.0
2015-Jul-30 19:24N 40°56' E 009°32'0 0.0
2015-Jul-30 18:27N 40°56' E 009°32'0 0.0
2015-Jul-30 17:30N 40°56' E 009°32'0 0.0
2015-Jul-30 16:30N 40°56' E 009°32'0 0.0
2015-Jul-30 15:30N 40°56' E 009°32'0 0.0
2015-Jul-30 14:30N 40°56' E 009°32'0 0.0
2015-Jul-30 13:30N 40°56' E 009°32'0 0.0
2015-Jul-30 12:33N 40°56' E 009°32'0 0.0
2015-Jul-30 11:33N 40°56' E 009°32'0 0.0
2015-Jul-30 10:33N 40°56' E 009°32'189 5.9
2015-Jul-29 02:28N 42°42' E 006°03'7 7.9
2015-Jul-29 01:32N 42°46' E 005°55'10 8.0
2015-Jul-29 00:17N 42°52' E 005°43'6 8.1
2015-Jul-28 23:33N 42°55' E 005°37'8 8.2
2015-Jul-28 22:33N 42°60' E 005°27'8 8.4
2015-Jul-28 21:33N 43°04' E 005°18'8 8.5
2015-Jul-28 20:33N 43°09' E 005°08'8 8.1
2015-Jul-28 19:33N 43°15' E 005°00'8 8.4
2015-Jul-28 18:33N 43°23' E 004°57'6 5.8
2015-Jul-28 17:33N 43°23' E 004°49'5 4.7
2015-Jul-28 16:33N 43°27' E 004°44'8 7.5
2015-Jul-28 15:33N 43°34' E 004°42'9 0.2
2015-Jul-27 04:18N 43°42' E 004°38'2 0.3
2015-Jul-26 21:26N 43°40' E 004°36'6 5.8
2015-Jul-26 20:23N 43°35' E 004°40'6 7.2
2015-Jul-26 19:33N 43°30' E 004°44'7 6.5
2015-Jul-26 18:33N 43°23' E 004°47'3 2.8
2015-Jul-26 17:33N 43°23' E 004°51'7 7.0
2015-Jul-26 16:33N 43°19' E 004°59'9 8.6
2015-Jul-26 15:33N 43°11' E 005°02'10 9.7
2015-Jul-26 14:34N 43°03' E 004°56'9 9.1
2015-Jul-26 13:33N 42°55' E 004°49'9 8.7
2015-Jul-26 12:33N 42°47' E 004°43'9 9.2
2015-Jul-26 11:33N 42°39' E 004°36'9 9.3
2015-Jul-26 10:33N 42°32' E 004°30'9 8.9
2015-Jul-26 09:33N 42°24' E 004°24'  
Track history (hours):
 
Tides and Currents Weather Stations Pressure Air Temp Water Temp Dewpoint Dewpoint Depression Visibility Wind Speed Wind Dir Waves Ship Positions

Eems Trader

Last reported at 2015-Aug-04 23:29 UTC. Time now 2015-Aug-05 02:20 UTC.
Position N 37°23' E 012°28'.

Length 89 m; draft 3 m.

Type: Cargo ship. MMSI: 305182000.

Date/timePositionNaut miles runAvg speedWind from/ knotsBaromVisibWave heightAir tempDewpointWater temp
2015-Aug-04 23:29N 37°23' E 012°28'17 8.7
2015-Aug-04 21:33N 37°35' E 012°13'10 7.8
2015-Aug-04 20:16N 37°44' E 012°10'7 8.1
2015-Aug-04 19:27N 37°48' E 012°04'26 9.0
2015-Aug-04 16:33N 38°12' E 011°48'179 8.9
2015-Aug-03 20:33N 40°49' E 009°59'12 8.3
2015-Aug-03 19:03N 40°59' E 009°49'7 8.4
2015-Aug-03 18:14N 40°57' E 009°40'  
2015-Jul-31 01:18N 40°56' E 009°32'0 0.0
2015-Jul-31 00:21N 40°56' E 009°32'0 0.0
2015-Jul-30 23:24N 40°56' E 009°32'0 0.0
2015-Jul-30 22:21N 40°56' E 009°32'0 0.0
2015-Jul-30 21:27N 40°56' E 009°32'0 0.0
2015-Jul-30 20:27N 40°56' E 009°32'0 0.0
2015-Jul-30 19:24N 40°56' E 009°32'0 0.0
2015-Jul-30 18:27N 40°56' E 009°32'0 0.0
2015-Jul-30 17:30N 40°56' E 009°32'0 0.0
2015-Jul-30 16:30N 40°56' E 009°32'0 0.0
2015-Jul-30 15:30N 40°56' E 009°32'0 0.0
2015-Jul-30 14:30N 40°56' E 009°32'0 0.0
2015-Jul-30 13:30N 40°56' E 009°32'0 0.0
2015-Jul-30 12:33N 40°56' E 009°32'0 0.0
2015-Jul-30 11:33N 40°56' E 009°32'0 0.0
2015-Jul-30 10:33N 40°56' E 009°32'189 5.9
2015-Jul-29 02:28N 42°42' E 006°03'7 7.9
2015-Jul-29 01:32N 42°46' E 005°55'10 8.0
2015-Jul-29 00:17N 42°52' E 005°43'6 8.1
2015-Jul-28 23:33N 42°55' E 005°37'8 8.2
2015-Jul-28 22:33N 42°60' E 005°27'8 8.4
2015-Jul-28 21:33N 43°04' E 005°18'8 8.5
2015-Jul-28 20:33N 43°09' E 005°08'8 8.1
2015-Jul-28 19:33N 43°15' E 005°00'8 8.4
2015-Jul-28 18:33N 43°23' E 004°57'6 5.8
2015-Jul-28 17:33N 43°23' E 004°49'5 4.7
2015-Jul-28 16:33N 43°27' E 004°44'8 7.5
2015-Jul-28 15:33N 43°34' E 004°42'9 0.2
2015-Jul-27 04:18N 43°42' E 004°38'2 0.3
2015-Jul-26 21:26N 43°40' E 004°36'6 5.8
2015-Jul-26 20:23N 43°35' E 004°40'6 7.2
2015-Jul-26 19:33N 43°30' E 004°44'7 6.5
2015-Jul-26 18:33N 43°23' E 004°47'3 2.8
2015-Jul-26 17:33N 43°23' E 004°51'7 7.0
2015-Jul-26 16:33N 43°19' E 004°59'9 8.6
2015-Jul-26 15:33N 43°11' E 005°02'10 9.7
2015-Jul-26 14:34N 43°03' E 004°56'9 9.1
2015-Jul-26 13:33N 42°55' E 004°49'9 8.7
2015-Jul-26 12:33N 42°47' E 004°43'9 9.2
2015-Jul-26 11:33N 42°39' E 004°36'9 9.3
2015-Jul-26 10:33N 42°32' E 004°30'9 8.9
2015-Jul-26 09:33N 42°24' E 004°24'  

Dump ship's entire track history